地図

経路データ

SID SEASON NUMBER BASIN SUBBASIN NAME ISO_TIME NATURE LAT LON WMO_WIND WMO_PRES WMO_AGENCY TRACK_TYPE DIST2LAND LANDFALL IFLAG USA_AGENCY USA_ATCF_ID USA_LAT USA_LON USA_RECORD USA_STATUS USA_WIND USA_PRES USA_SSHS USA_R34_NE USA_R34_SE USA_R34_SW USA_R34_NW USA_R50_NE USA_R50_SE USA_R50_SW USA_R50_NW USA_R64_NE USA_R64_SE USA_R64_SW USA_R64_NW USA_POCI USA_ROCI USA_RMW USA_EYE TOKYO_LAT TOKYO_LON TOKYO_GRADE TOKYO_WIND TOKYO_PRES TOKYO_R50_DIR TOKYO_R50_LONG TOKYO_R50_SHORT TOKYO_R30_DIR TOKYO_R30_LONG TOKYO_R30_SHORT TOKYO_LAND CMA_LAT CMA_LON CMA_CAT CMA_WIND CMA_PRES HKO_LAT HKO_LON HKO_CAT HKO_WIND HKO_PRES NEWDELHI_LAT NEWDELHI_LON NEWDELHI_GRADE NEWDELHI_WIND NEWDELHI_PRES NEWDELHI_CI NEWDELHI_DP NEWDELHI_POCI REUNION_LAT REUNION_LON REUNION_TYPE REUNION_WIND REUNION_PRES REUNION_TNUM REUNION_CI REUNION_RMW REUNION_R34_NE REUNION_R34_SE REUNION_R34_SW REUNION_R34_NW REUNION_R50_NE REUNION_R50_SE REUNION_R50_SW REUNION_R50_NW REUNION_R64_NE REUNION_R64_SE REUNION_R64_SW REUNION_R64_NW BOM_LAT BOM_LON BOM_TYPE BOM_WIND BOM_PRES BOM_TNUM BOM_CI BOM_RMW BOM_R34_NE BOM_R34_SE BOM_R34_SW BOM_R34_NW BOM_R50_NE BOM_R50_SE BOM_R50_SW BOM_R50_NW BOM_R64_NE BOM_R64_SE BOM_R64_SW BOM_R64_NW BOM_ROCI BOM_POCI BOM_EYE BOM_POS_METHOD BOM_PRES_METHOD NADI_LAT NADI_LON NADI_CAT NADI_WIND NADI_PRES WELLINGTON_LAT WELLINGTON_LON WELLINGTON_WIND WELLINGTON_PRES DS824_LAT DS824_LON DS824_STAGE DS824_WIND DS824_PRES TD9636_LAT TD9636_LON TD9636_STAGE TD9636_WIND TD9636_PRES TD9635_LAT TD9635_LON TD9635_WIND TD9635_PRES TD9635_ROCI NEUMANN_LAT NEUMANN_LON NEUMANN_CLASS NEUMANN_WIND NEUMANN_PRES MLC_LAT MLC_LON MLC_CLASS MLC_WIND MLC_PRES USA_GUST BOM_GUST BOM_GUST_PER REUNION_GUST REUNION_GUST_PER USA_SEAHGT USA_SEARAD_NE USA_SEARAD_SE USA_SEARAD_SW USA_SEARAD_NW STORM_SPEED STORM_DIR
1952202N21089 1952 42 NI BB NOT_NAMED 1952-07-19 18:00:00 TS 20.5000 88.7000 main 124 123 O________O____ jtwc_io IO041952 20.5000 88.7000 -1 20.5000 88.7000 TC 2 271
1952202N21089 1952 42 NI BB NOT_NAMED 1952-07-19 21:00:00 TS 20.5025 88.5975 main 123 123 P________P____ IO041952 20.5025 88.5975 -1 20.5025 88.5975 TC 2 270
1952202N21089 1952 42 NI BB NOT_NAMED 1952-07-20 00:00:00 TS 20.5000 88.5000 main 123 123 O________O____ jtwc_io IO041952 20.5000 88.5000 -1 20.5000 88.5000 TC 25 2 267
1952202N21089 1952 42 NI BB NOT_NAMED 1952-07-20 03:00:00 TS 20.4933 88.4066 main 123 123 P________PO___ IO041952 20.4925 88.4075 -1 20.4925 88.4075 TC 25 20.5000 88.4000 1 2 272
1952202N21089 1952 42 NI BB NOT_NAMED 1952-07-20 06:00:00 TS 20.5082 88.2869 main 123 116 O________OP___ jtwc_io IO041952 20.5000 88.3000 -1 20.5000 88.3000 TC 25 20.5409 88.2346 1 3 282
1952202N21089 1952 42 NI BB NOT_NAMED 1952-07-20 09:00:00 TS 20.5488 88.1324 main 116 104 P________PP___ IO041952 20.5350 88.1500 -1 20.5350 88.1500 TC 25 20.5854 88.0854 1 3 290
1952202N21089 1952 42 NI BB NOT_NAMED 1952-07-20 12:00:00 TS 20.6124 87.9895 main 104 93 O________OP___ jtwc_io IO041952 20.6000 88.0000 -1 20.6000 88.0000 TC 25 20.6372 87.9684 1 3 302
1952202N21089 1952 42 NI BB NOT_NAMED 1952-07-20 15:00:00 TS 20.6950 87.8850 main 93 83 P________PO___ IO041952 20.6925 87.8775 -1 20.6925 87.8775 TC 25 20.7000 87.9000 1 2 319
1952202N21089 1952 42 NI BB NOT_NAMED 1952-07-20 18:00:00 TS 20.7924 87.8283 main 83 83 O________OP___ jtwc_io IO041952 20.8000 87.8000 -1 20.8000 87.8000 TC 25 20.7771 87.8849 1 2 350
1952202N21089 1952 42 NI BB NOT_NAMED 1952-07-20 21:00:00 TS 20.8897 87.8372 main 83 78 P________PP___ IO041952 20.9000 87.8149 -1 20.9000 87.8149 TC 25 20.8693 87.8818 1 2 352
1952202N21089 1952 42 NI BB NOT_NAMED 1952-07-21 00:00:00 TS 20.9923 87.8126 main 78 63 O________OP___ jtwc_io IO041952 21.0000 87.8000 -1 21.0000 87.8000 TC 25 20.9769 87.8379 1 3 323
1952202N21089 1952 42 NI BB NOT_NAMED 1952-07-21 03:00:00 TS 21.0899 87.6782 main 63 44 P________PO___ IO041952 21.0848 87.6673 -1 21.0848 87.6673 TC 25 21.1000 87.7000 1 4 300
1952202N21089 1952 42 NI BB NOT_NAMED 1952-07-21 06:00:00 TS 21.2162 87.3964 main 44 0 O________OP___ jtwc_io IO041952 21.2000 87.4000 -1 21.2000 87.4000 TC 25 21.2485 87.3890 1 7 296
1952202N21089 1952 42 NI BB NOT_NAMED 1952-07-21 09:00:00 TS 21.4030 86.9763 main 0 0 P________PP___ IO041952 21.4002 86.9728 -1 21.4002 86.9728 TC 25 21.4085 86.9833 1 9 294
1952202N21089 1952 42 NI BB NOT_NAMED 1952-07-21 12:00:00 TS 21.5880 86.5120 main 0 0 O________OP___ jtwc_io IO041952 21.6000 86.5000 -1 21.6000 86.5000 TC 25 21.5641 86.5359 1 9 291
1952202N21089 1952 42 NI BB NOT_NAMED 1952-07-21 15:00:00 TS 21.7099 86.1232 main 0 0 P________PO___ IO041952 21.7148 86.1348 -1 21.7148 86.1348 TC 25 21.7000 86.1000 1 7 287
1952202N21089 1952 42 NI BB NOT_NAMED 1952-07-21 18:00:00 TS 21.8021 85.7671 main 0 0 O________OP___ jtwc_io IO041952 21.8000 85.8000 -1 21.8000 85.8000 TC 25 21.8052 85.7177 1 7 286
1952202N21089 1952 42 NI BB NOT_NAMED 1952-07-21 21:00:00 TS 21.8906 85.4249 main 0 0 P________PP___ IO041952 21.8952 85.4552 -1 21.8952 85.4552 TC 25 21.8846 85.3846 1 6 285
1952202N21089 1952 42 NI BB NOT_NAMED 1952-07-22 00:00:00 TS 21.9733 85.0921 main 0 0 O________OP___ jtwc_io IO041952 22.0000 85.1000 -1 22.0000 85.1000 TC 25 21.9467 85.0841 1 6 281
1952202N21089 1952 42 NI BB NOT_NAMED 1952-07-22 03:00:00 NR 22.0000 84.8000 main 0 __________O___ IO041952 -1 TC 22.0000 84.8000 1 5 276

IBTrACS Databaseについて

本データベースは、米国NOAAが公開する1842年以降の世界の熱帯低気圧のベストトラックデータアーカイブInternational Best Track Archive for Climate Stewardship (IBTrACS)を、ウェブで閲覧しやすい形式に変換したものです。

最終更新日:2021-11-26